createdAt,value
2023-04-06T00:00:25.134Z,42.49
2023-04-06T00:02:53.163Z,42.56
2023-04-06T00:05:21.083Z,42.26
2023-04-06T00:07:48.055Z,42.29
2023-04-06T00:10:14.787Z,41.84
2023-04-06T00:12:41.606Z,41.85
2023-04-06T00:15:08.867Z,41.62
2023-04-06T00:17:35.837Z,41.87
2023-04-06T00:20:02.607Z,41.61
2023-04-06T00:22:29.523Z,41.68
2023-04-06T00:24:56.326Z,42.02
2023-04-06T00:27:23.044Z,42.20
2023-04-06T00:29:49.957Z,42.53
2023-04-06T00:32:17.293Z,42.48
2023-04-06T00:34:44.140Z,42.52
2023-04-06T00:37:12.703Z,42.80
2023-04-06T00:39:39.450Z,42.94
2023-04-06T00:42:10.807Z,43.07
2023-04-06T00:44:37.739Z,42.84
2023-04-06T00:47:04.683Z,42.80
2023-04-06T00:49:31.487Z,42.92
2023-04-06T00:51:58.318Z,42.64
2023-04-06T00:54:25.123Z,42.87
2023-04-06T00:56:51.862Z,42.80
2023-04-06T00:59:18.805Z,42.67
2023-04-06T01:01:45.791Z,42.54
2023-04-06T01:04:23.877Z,42.53
2023-04-06T01:06:51.203Z,42.36
2023-04-06T01:09:18.428Z,42.26
2023-04-06T01:11:45.558Z,42.30
2023-04-06T01:14:12.382Z,41.72
2023-04-06T01:16:39.230Z,41.88
2023-04-06T01:19:11.005Z,41.75
2023-04-06T01:21:38.679Z,41.92
2023-04-06T01:24:06.187Z,42.28
2023-04-06T01:26:33.543Z,42.35
2023-04-06T01:29:00.469Z,42.27
2023-04-06T01:31:27.492Z,41.88
2023-04-06T01:33:54.499Z,41.59
2023-04-06T01:36:21.672Z,41.59
2023-04-06T01:38:48.416Z,41.65
2023-04-06T01:41:15.570Z,41.28
2023-04-06T01:43:42.278Z,41.37
2023-04-06T01:46:09.119Z,41.75
2023-04-06T01:48:36.358Z,41.87
2023-04-06T01:51:03.352Z,42.26
2023-04-06T01:53:30.210Z,42.20
2023-04-06T01:55:57.055Z,42.54
2023-04-06T01:58:23.780Z,42.64
2023-04-06T02:00:50.572Z,43.07
2023-04-06T02:03:17.421Z,43.31
2023-04-06T02:05:44.215Z,43.50
2023-04-06T02:08:10.943Z,43.44
2023-04-06T02:10:37.833Z,43.79
2023-04-06T02:13:04.635Z,43.65
2023-04-06T02:15:31.389Z,43.93
2023-04-06T02:17:58.679Z,44.19
2023-04-06T02:20:25.590Z,44.23
2023-04-06T02:22:53.495Z,44.56
2023-04-06T02:25:20.350Z,44.33
2023-04-06T02:27:47.133Z,44.49
2023-04-06T02:30:14.068Z,44.49
2023-04-06T02:32:41.581Z,44.55
2023-04-06T02:35:08.765Z,44.55
2023-04-06T02:37:35.486Z,44.66
2023-04-06T02:40:02.302Z,44.53
2023-04-06T02:42:29.014Z,44.66
2023-04-06T02:44:55.722Z,44.67
2023-04-06T02:47:22.609Z,44.69
2023-04-06T02:49:49.322Z,44.81
2023-04-06T02:52:16.080Z,44.86
2023-04-06T02:54:42.923Z,44.70
2023-04-06T02:57:09.638Z,44.84
2023-04-06T02:59:36.984Z,44.70
2023-04-06T03:02:03.832Z,44.75
2023-04-06T03:04:30.813Z,44.67
2023-04-06T03:07:00.748Z,44.31
2023-04-06T03:09:28.706Z,44.16
2023-04-06T03:11:56.314Z,43.93
2023-04-06T03:14:23.438Z,43.73
2023-04-06T03:16:50.530Z,43.65
2023-04-06T03:19:17.260Z,43.70
2023-04-06T03:21:44.055Z,44.04
2023-04-06T03:24:11.020Z,44.12
2023-04-06T03:26:37.823Z,43.99
2023-04-06T03:29:04.667Z,43.67
2023-04-06T03:31:31.524Z,43.64
2023-04-06T03:33:58.341Z,43.24
2023-04-06T03:36:25.077Z,43.24
2023-04-06T03:38:51.939Z,43.46
2023-04-06T03:41:18.747Z,43.46
2023-04-06T03:43:45.984Z,43.89
2023-04-06T03:46:12.971Z,44.18
2023-04-06T03:48:39.784Z,44.42
2023-04-06T03:51:06.536Z,44.50
2023-04-06T03:53:33.370Z,44.45
2023-04-06T03:56:00.916Z,44.73
2023-04-06T03:58:28.391Z,44.88
2023-04-06T04:00:55.229Z,45.02
2023-04-06T04:03:24.638Z,45.19
2023-04-06T04:05:52.095Z,45.16
2023-04-06T04:08:18.936Z,44.82
2023-04-06T04:10:45.656Z,44.65
2023-04-06T04:13:12.367Z,44.58
2023-04-06T04:15:39.088Z,44.50
2023-04-06T04:18:05.946Z,44.62
2023-04-06T04:20:32.798Z,44.62
2023-04-06T04:22:59.499Z,44.51
2023-04-06T04:25:26.397Z,44.65
2023-04-06T04:27:53.406Z,44.70
2023-04-06T04:30:20.157Z,44.81
2023-04-06T04:32:46.905Z,44.79
2023-04-06T04:35:14.754Z,45.03
2023-04-06T04:37:42.174Z,45.32
2023-04-06T04:40:09.605Z,45.53
2023-04-06T04:42:36.492Z,45.69
2023-04-06T04:45:03.321Z,45.62
2023-04-06T04:47:30.184Z,45.30
2023-04-06T04:49:57.122Z,45.21
2023-04-06T04:52:23.831Z,45.18
2023-04-06T04:54:50.626Z,45.13
2023-04-06T04:57:17.412Z,45.11
2023-04-06T04:59:44.361Z,45.38
2023-04-06T05:02:11.168Z,45.32
2023-04-06T05:04:38.108Z,45.39
2023-04-06T05:07:05.457Z,45.70
2023-04-06T05:09:32.591Z,45.73
2023-04-06T05:12:00.760Z,46.00
2023-04-06T05:14:30.866Z,46.05
2023-04-06T05:16:58.252Z,46.18
2023-04-06T05:19:25.043Z,46.49
2023-04-06T05:21:51.829Z,46.62
2023-04-06T05:24:18.553Z,46.79
2023-04-06T05:26:45.832Z,46.89
2023-04-06T05:29:12.675Z,47.09
2023-04-06T05:31:39.392Z,47.25
2023-04-06T05:34:06.477Z,47.18
2023-04-06T05:36:33.424Z,47.20
2023-04-06T05:39:00.529Z,47.15
2023-04-06T05:41:27.405Z,47.37
2023-04-06T05:43:54.190Z,47.31
2023-04-06T05:46:21.343Z,47.64
2023-04-06T05:48:48.188Z,47.70
2023-04-06T05:51:14.987Z,47.86
2023-04-06T05:53:41.861Z,48.11
2023-04-06T05:56:08.673Z,48.19
2023-04-06T05:58:35.601Z,48.36
2023-04-06T06:01:02.480Z,48.26
2023-04-06T06:03:29.860Z,48.44
2023-04-06T06:06:05.323Z,48.37
2023-04-06T06:08:32.608Z,48.20
2023-04-06T06:11:00.523Z,48.17
2023-04-06T06:13:27.278Z,48.37
2023-04-06T06:15:54.590Z,48.32
2023-04-06T06:18:21.365Z,48.66
2023-04-06T06:20:48.099Z,48.49
2023-04-06T06:23:15.753Z,48.47
2023-04-06T06:25:42.545Z,48.42
2023-04-06T06:28:09.350Z,48.46
2023-04-06T06:30:36.257Z,48.40
2023-04-06T06:33:03.289Z,48.52
2023-04-06T06:35:30.829Z,48.37
2023-04-06T06:37:57.659Z,48.38
2023-04-06T06:40:25.390Z,48.34
2023-04-06T06:42:52.563Z,48.23
2023-04-06T06:45:19.887Z,48.44
2023-04-06T06:47:47.289Z,48.50
2023-04-06T06:50:14.168Z,48.20
2023-04-06T06:52:41.575Z,48.13
2023-04-06T06:55:09.518Z,48.02
2023-04-06T06:57:36.247Z,47.83
2023-04-06T07:00:03.184Z,47.34
2023-04-06T07:02:30.151Z,47.31
2023-04-06T07:04:57.112Z,47.00
2023-04-06T07:07:24.165Z,47.04
2023-04-06T07:09:51.015Z,46.95
2023-04-06T07:12:17.812Z,47.25
2023-04-06T07:14:44.680Z,46.94
2023-04-06T07:17:11.499Z,46.55
2023-04-06T07:19:38.309Z,46.42
2023-04-06T07:22:05.814Z,46.79
2023-04-06T07:24:32.592Z,45.97
2023-04-06T07:27:00.176Z,45.48
2023-04-06T07:29:27.027Z,45.35
2023-04-06T07:31:55.053Z,44.57
2023-04-06T07:34:21.970Z,44.36
2023-04-06T07:36:48.893Z,44.22
2023-04-06T07:39:15.883Z,43.61
2023-04-06T07:41:43.071Z,43.56
2023-04-06T07:44:10.244Z,43.66
2023-04-06T07:46:37.717Z,44.14
2023-04-06T07:49:04.614Z,44.35
2023-04-06T07:51:32.381Z,43.47
2023-04-06T07:53:59.178Z,43.39
2023-04-06T07:56:26.307Z,43.31
2023-04-06T07:58:54.533Z,42.13
2023-04-06T08:01:21.394Z,41.64
2023-04-06T08:03:48.454Z,41.29
2023-04-06T08:06:15.751Z,40.58
2023-04-06T08:08:43.063Z,39.75
2023-04-06T08:11:10.218Z,39.27
2023-04-06T08:13:37.037Z,38.60
2023-04-06T08:16:03.985Z,38.20
2023-04-06T08:18:31.106Z,37.85
2023-04-06T08:20:58.282Z,37.61
2023-04-06T08:23:25.167Z,38.07
2023-04-06T08:25:54.423Z,37.90
2023-04-06T08:28:22.395Z,38.32
2023-04-06T08:30:49.185Z,37.58
2023-04-06T08:33:16.000Z,37.43
2023-04-06T08:35:42.942Z,36.87
2023-04-06T08:38:09.680Z,36.22
2023-04-06T08:40:40.045Z,35.71
2023-04-06T08:43:09.742Z,35.54
2023-04-06T08:45:36.986Z,35.25
2023-04-06T08:48:04.429Z,34.92
2023-04-06T08:50:31.533Z,34.54
2023-04-06T08:52:58.419Z,34.37
2023-04-06T08:55:25.231Z,34.39
2023-04-06T08:57:54.566Z,34.02
2023-04-06T09:00:22.886Z,33.53
2023-04-06T09:02:50.754Z,32.96
2023-04-06T09:05:17.739Z,32.96
2023-04-06T09:07:44.567Z,32.65
2023-04-06T09:10:11.662Z,32.28
2023-04-06T09:12:38.502Z,31.64
2023-04-06T09:15:06.356Z,31.47
2023-04-06T09:17:37.855Z,31.41
2023-04-06T09:20:06.041Z,30.77
2023-04-06T09:22:39.678Z,30.40
2023-04-06T09:25:07.539Z,29.41
2023-04-06T09:27:35.860Z,28.35
2023-04-06T09:30:06.522Z,27.69
2023-04-06T09:32:33.466Z,27.21
2023-04-06T09:35:10.066Z,26.81
2023-04-06T09:37:37.094Z,26.44
2023-04-06T09:40:05.387Z,25.78
2023-04-06T09:42:32.177Z,25.64
2023-04-06T09:44:59.000Z,25.45
2023-04-06T09:47:29.296Z,25.11
2023-04-06T09:50:00.925Z,24.41
2023-04-06T09:52:32.319Z,24.29
2023-04-06T09:55:02.235Z,24.01
2023-04-06T09:57:34.354Z,24.21
2023-04-06T10:00:12.886Z,23.43
2023-04-06T10:02:48.748Z,23.29
2023-04-06T10:05:27.127Z,23.06
2023-04-06T10:08:00.471Z,23.14
2023-04-06T10:10:29.421Z,23.08
2023-04-06T10:12:56.886Z,22.59
2023-04-06T10:15:23.696Z,21.86
2023-04-06T10:17:50.631Z,21.03
2023-04-06T10:20:22.130Z,21.26
2023-04-06T10:23:15.668Z,21.61
2023-04-06T10:25:56.004Z,22.61
2023-04-06T10:28:22.961Z,21.50
2023-04-06T10:30:49.868Z,20.94
2023-04-06T10:33:21.372Z,21.63
2023-04-06T10:35:48.322Z,21.67
2023-04-06T10:38:15.611Z,21.36
2023-04-06T10:40:48.995Z,21.23
2023-04-06T10:43:21.058Z,22.08
2023-04-06T10:45:59.454Z,21.05
2023-04-06T10:48:27.269Z,21.06
2023-04-06T10:50:54.207Z,20.43
2023-04-06T10:53:27.862Z,20.79
2023-04-06T10:55:56.538Z,20.54
2023-04-06T10:58:29.964Z,20.22
2023-04-06T11:01:00.976Z,19.90
2023-04-06T11:03:28.354Z,19.88
2023-04-06T11:05:55.248Z,19.61
2023-04-06T11:08:28.219Z,20.06
2023-04-06T11:11:17.135Z,19.20
2023-04-06T11:13:57.732Z,18.93
2023-04-06T11:16:26.718Z,18.59
2023-04-06T11:18:54.658Z,17.57
2023-04-06T11:21:34.395Z,17.89
2023-04-06T11:24:17.094Z,17.33
2023-04-06T11:26:57.176Z,17.42
2023-04-06T11:29:27.555Z,17.45
2023-04-06T11:31:55.389Z,17.64
2023-04-06T11:34:25.715Z,16.96
2023-04-06T11:37:00.407Z,17.43
2023-04-06T11:39:28.468Z,17.99
2023-04-06T11:42:00.298Z,17.94
2023-04-06T11:44:33.085Z,17.87
2023-04-06T11:47:00.557Z,17.65
2023-04-06T11:49:30.795Z,17.20
2023-04-06T11:51:58.549Z,17.12
2023-04-06T11:54:38.994Z,17.11
2023-04-06T11:57:06.423Z,16.92
2023-04-06T11:59:34.011Z,16.58
2023-04-06T12:02:00.975Z,15.98
2023-04-06T12:04:27.870Z,15.26
2023-04-06T12:06:54.718Z,15.42
2023-04-06T12:09:21.594Z,15.01
2023-04-06T12:11:48.652Z,15.14
2023-04-06T12:14:15.577Z,14.93
2023-04-06T12:16:42.313Z,14.60
2023-04-06T12:19:09.279Z,14.07
2023-04-06T12:21:38.345Z,14.23
2023-04-06T12:24:05.876Z,14.12
2023-04-06T12:26:32.811Z,13.90
2023-04-06T12:29:07.814Z,12.98
2023-04-06T12:31:36.641Z,13.44
2023-04-06T12:34:04.811Z,13.48
2023-04-06T12:36:32.513Z,14.06
2023-04-06T12:38:59.655Z,14.16
2023-04-06T12:41:26.659Z,12.69
2023-04-06T12:43:53.477Z,12.35
2023-04-06T12:46:21.088Z,12.33
2023-04-06T12:48:48.083Z,12.04
2023-04-06T12:51:14.889Z,12.28
2023-04-06T12:53:41.752Z,11.85
2023-04-06T12:56:16.751Z,11.29
2023-04-06T12:58:43.942Z,11.63
2023-04-06T13:01:12.649Z,11.75
2023-04-06T13:03:40.118Z,11.47
2023-04-06T13:06:07.274Z,11.54
2023-04-06T13:08:34.165Z,11.34
2023-04-06T13:11:00.977Z,11.42
2023-04-06T13:13:28.782Z,10.95
2023-04-06T13:16:00.194Z,10.55
2023-04-06T13:18:27.346Z,11.05
2023-04-06T13:20:54.205Z,11.41
2023-04-06T13:23:21.062Z,11.43
2023-04-06T13:25:47.837Z,11.83
2023-04-06T13:28:15.044Z,12.06
2023-04-06T13:30:41.865Z,12.59
2023-04-06T13:33:08.810Z,12.44
2023-04-06T13:35:37.055Z,12.17
2023-04-06T13:38:03.874Z,12.16
2023-04-06T13:40:30.768Z,12.61
2023-04-06T13:42:57.600Z,13.28
2023-04-06T13:45:24.622Z,13.21
2023-04-06T13:47:51.958Z,13.45
2023-04-06T13:50:19.246Z,13.67
2023-04-06T13:52:46.174Z,13.66
2023-04-06T13:55:12.992Z,14.14
2023-04-06T13:57:39.899Z,14.07
2023-04-06T14:00:08.319Z,14.17
2023-04-06T14:02:35.352Z,14.44
2023-04-06T14:05:02.270Z,14.36
2023-04-06T14:07:29.081Z,14.13
2023-04-06T14:09:55.874Z,14.38
2023-04-06T14:12:22.920Z,14.22
2023-04-06T14:14:49.722Z,15.20
2023-04-06T14:17:16.546Z,14.96
2023-04-06T14:19:44.283Z,15.19
2023-04-06T14:22:11.536Z,15.56
2023-04-06T14:24:38.758Z,15.71
2023-04-06T14:27:05.605Z,16.12
2023-04-06T14:29:32.342Z,15.94
2023-04-06T14:32:00.975Z,16.34
2023-04-06T14:34:28.302Z,17.43
2023-04-06T14:36:55.176Z,19.30
2023-04-06T14:39:22.024Z,20.78
2023-04-06T14:41:49.893Z,21.41
2023-04-06T14:44:17.894Z,22.58
2023-04-06T14:46:44.963Z,23.60
2023-04-06T14:49:12.378Z,24.55
2023-04-06T14:51:40.115Z,25.31
2023-04-06T14:54:06.881Z,25.63
2023-04-06T14:56:33.830Z,25.08
2023-04-06T14:59:02.493Z,25.56
2023-04-06T15:01:29.321Z,25.62
2023-04-06T15:03:56.460Z,26.14
2023-04-06T15:06:23.380Z,26.36
2023-04-06T15:08:50.980Z,26.82
2023-04-06T15:11:17.906Z,26.71
2023-04-06T15:13:45.347Z,26.71
2023-04-06T15:16:12.486Z,26.79
2023-04-06T15:18:39.412Z,27.41
2023-04-06T15:21:07.289Z,27.67
2023-04-06T15:23:35.438Z,27.95
2023-04-06T15:26:02.454Z,28.22
2023-04-06T15:28:29.846Z,28.47
2023-04-06T15:30:56.936Z,29.00
2023-04-06T15:33:24.128Z,28.88
2023-04-06T15:35:51.217Z,29.37
2023-04-06T15:38:17.982Z,29.57
2023-04-06T15:40:49.073Z,29.03
2023-04-06T15:43:15.926Z,29.47
2023-04-06T15:45:42.754Z,29.88
2023-04-06T15:48:10.052Z,29.88
2023-04-06T15:50:36.868Z,29.70
2023-04-06T15:53:03.720Z,30.08
2023-04-06T15:55:30.764Z,30.34
2023-04-06T15:57:57.484Z,30.90
2023-04-06T16:00:25.453Z,31.07
2023-04-06T16:02:52.583Z,31.33
2023-04-06T16:05:19.578Z,32.00
2023-04-06T16:07:46.347Z,32.91
2023-04-06T16:10:13.196Z,32.38
2023-04-06T16:12:42.507Z,32.73
2023-04-06T16:15:09.509Z,32.79
2023-04-06T16:17:36.566Z,32.43
2023-04-06T16:20:04.038Z,32.75
2023-04-06T16:22:30.854Z,32.96
2023-04-06T16:24:58.911Z,33.43
2023-04-06T16:27:25.852Z,34.13
2023-04-06T16:29:52.781Z,33.98
2023-04-06T16:32:19.664Z,33.75
2023-04-06T16:34:47.506Z,33.66
2023-04-06T16:37:14.291Z,33.27
2023-04-06T16:39:41.169Z,33.63
2023-04-06T16:42:07.890Z,33.39
2023-04-06T16:44:34.957Z,33.07
2023-04-06T16:47:01.812Z,33.32
2023-04-06T16:49:28.784Z,33.41
2023-04-06T16:51:55.570Z,33.56
2023-04-06T16:54:22.445Z,33.62
2023-04-06T16:56:49.173Z,33.17
2023-04-06T16:59:16.116Z,33.45
2023-04-06T17:01:43.225Z,33.70
2023-04-06T17:04:10.331Z,33.68
2023-04-06T17:06:37.216Z,34.14
2023-04-06T17:09:04.138Z,33.31
2023-04-06T17:11:43.564Z,33.26
2023-04-06T17:14:13.234Z,33.25
2023-04-06T17:16:40.005Z,32.37
2023-04-06T17:19:07.283Z,31.86
2023-04-06T17:21:34.168Z,32.09
2023-04-06T17:24:01.039Z,32.03
2023-04-06T17:26:27.832Z,32.48
2023-04-06T17:28:54.839Z,31.92
2023-04-06T17:31:22.578Z,31.75
2023-04-06T17:33:49.975Z,31.71
2023-04-06T17:36:16.841Z,31.21
2023-04-06T17:38:45.881Z,31.44
2023-04-06T17:41:13.320Z,32.07
2023-04-06T17:43:40.389Z,31.75
2023-04-06T17:46:07.257Z,32.00
2023-04-06T17:48:34.428Z,31.46
2023-04-06T17:51:01.541Z,31.83
2023-04-06T17:53:34.569Z,31.51
2023-04-06T17:56:04.756Z,31.94
2023-04-06T17:58:31.714Z,32.07
2023-04-06T18:00:58.457Z,31.19
2023-04-06T18:03:25.344Z,30.75
2023-04-06T18:05:52.319Z,30.40
2023-04-06T18:08:19.092Z,30.73
2023-04-06T18:10:46.454Z,30.48
2023-04-06T18:13:13.732Z,30.37
2023-04-06T18:15:40.515Z,30.18
2023-04-06T18:18:08.138Z,30.27
2023-04-06T18:20:39.930Z,30.00
2023-04-06T18:23:06.695Z,30.06
2023-04-06T18:25:38.610Z,30.46
2023-04-06T18:28:05.978Z,30.75
2023-04-06T18:30:32.761Z,30.82
2023-04-06T18:33:00.710Z,31.46
2023-04-06T18:35:27.540Z,31.40
2023-04-06T18:37:54.270Z,31.45
2023-04-06T18:40:34.404Z,32.18
2023-04-06T18:43:01.997Z,31.64
2023-04-06T18:45:28.833Z,32.25
2023-04-06T18:47:57.009Z,31.97
2023-04-06T18:50:24.188Z,31.79
2023-04-06T18:52:52.205Z,31.66
2023-04-06T18:55:20.029Z,31.21
2023-04-06T18:57:47.089Z,30.56
2023-04-06T19:00:15.129Z,30.34
2023-04-06T19:02:44.567Z,29.77
2023-04-06T19:05:12.291Z,29.32
2023-04-06T19:07:39.723Z,29.52
2023-04-06T19:10:07.315Z,29.57
2023-04-06T19:12:38.956Z,29.67
2023-04-06T19:15:08.000Z,29.94
2023-04-06T19:17:35.221Z,29.82
2023-04-06T19:20:02.771Z,29.83
2023-04-06T19:22:29.688Z,30.04
2023-04-06T19:24:56.545Z,30.14
2023-04-06T19:27:23.355Z,29.77
2023-04-06T19:29:50.206Z,29.73
2023-04-06T19:32:17.338Z,29.81
2023-04-06T19:34:44.292Z,29.82
2023-04-06T19:37:11.395Z,29.80
2023-04-06T19:39:38.424Z,29.81
2023-04-06T19:42:05.182Z,29.65
2023-04-06T19:44:32.392Z,29.74
2023-04-06T19:46:59.402Z,29.64
2023-04-06T19:49:28.457Z,29.53
2023-04-06T19:51:55.758Z,29.52
2023-04-06T19:54:23.604Z,29.43
2023-04-06T19:56:50.534Z,29.37
2023-04-06T19:59:17.913Z,29.38
2023-04-06T20:01:45.664Z,29.37
2023-04-06T20:04:13.188Z,29.34
2023-04-06T20:06:40.162Z,29.46
2023-04-06T20:09:07.077Z,29.52
2023-04-06T20:11:35.682Z,29.33
2023-04-06T20:14:02.828Z,29.47
2023-04-06T20:16:29.791Z,29.57
2023-04-06T20:18:56.572Z,29.79
2023-04-06T20:21:23.280Z,29.86
2023-04-06T20:23:50.201Z,30.24
2023-04-06T20:26:16.954Z,30.40
2023-04-06T20:28:43.725Z,30.43
2023-04-06T20:31:10.908Z,30.10
2023-04-06T20:33:39.836Z,30.43
2023-04-06T20:36:06.734Z,30.47
2023-04-06T20:38:34.043Z,30.36
2023-04-06T20:41:02.139Z,30.48
2023-04-06T20:43:29.664Z,30.40
2023-04-06T20:45:57.808Z,30.68
2023-04-06T20:48:25.521Z,30.83
2023-04-06T20:50:52.927Z,30.91
2023-04-06T20:53:21.002Z,30.88
2023-04-06T20:55:47.940Z,30.92
2023-04-06T20:58:20.899Z,31.16
2023-04-06T21:00:49.720Z,31.41
2023-04-06T21:03:17.620Z,31.50
2023-04-06T21:06:00.015Z,31.63
2023-04-06T21:08:26.802Z,31.55
2023-04-06T21:10:53.555Z,31.74
2023-04-06T21:13:20.543Z,31.84
2023-04-06T21:15:47.366Z,32.08
2023-04-06T21:18:14.131Z,32.03
2023-04-06T21:20:41.029Z,32.04
2023-04-06T21:23:07.773Z,32.02
2023-04-06T21:25:37.101Z,32.33
2023-04-06T21:28:04.233Z,32.39
2023-04-06T21:30:36.971Z,32.54
2023-04-06T21:33:05.056Z,32.77
2023-04-06T21:35:31.934Z,32.62
2023-04-06T21:37:58.715Z,32.66
2023-04-06T21:40:25.613Z,32.76
2023-04-06T21:42:52.423Z,32.87
2023-04-06T21:45:19.147Z,32.76
2023-04-06T21:47:46.125Z,32.78
2023-04-06T21:50:12.885Z,32.99
2023-04-06T21:52:40.271Z,33.21
2023-04-06T21:55:07.728Z,33.27
2023-04-06T21:57:34.505Z,33.10
2023-04-06T22:00:02.221Z,33.05
2023-04-06T22:02:29.287Z,32.83
2023-04-06T22:04:56.278Z,32.64
2023-04-06T22:07:23.186Z,32.74
2023-04-06T22:09:53.740Z,32.76
2023-04-06T22:12:20.690Z,32.54
2023-04-06T22:14:47.442Z,32.65
2023-04-06T22:17:14.242Z,33.02
2023-04-06T22:19:40.974Z,33.38
2023-04-06T22:22:07.684Z,33.42
2023-04-06T22:24:34.632Z,33.46
2023-04-06T22:27:01.723Z,33.91
2023-04-06T22:29:28.510Z,33.56
2023-04-06T22:31:56.615Z,33.73
2023-04-06T22:34:23.349Z,33.63
2023-04-06T22:36:50.216Z,33.79
2023-04-06T22:39:17.335Z,33.65
2023-04-06T22:41:45.092Z,33.66
2023-04-06T22:44:11.842Z,33.69
2023-04-06T22:46:38.914Z,33.56
2023-04-06T22:49:06.008Z,33.41
2023-04-06T22:51:32.906Z,33.52
2023-04-06T22:53:59.882Z,33.22
2023-04-06T22:56:27.285Z,33.43
2023-04-06T22:58:56.076Z,33.15
2023-04-06T23:01:23.006Z,33.32
2023-04-06T23:03:50.742Z,33.55
2023-04-06T23:06:17.490Z,33.23
2023-04-06T23:08:44.403Z,33.44
2023-04-06T23:11:11.222Z,33.84
2023-04-06T23:13:38.030Z,33.50
2023-04-06T23:16:05.205Z,33.72
2023-04-06T23:18:31.922Z,34.08
2023-04-06T23:20:58.718Z,33.85
2023-04-06T23:23:25.632Z,34.40
2023-04-06T23:25:52.462Z,34.53
2023-04-06T23:28:19.214Z,34.48
2023-04-06T23:30:46.269Z,34.76
2023-04-06T23:33:13.056Z,34.76
2023-04-06T23:35:39.793Z,35.11
2023-04-06T23:38:06.722Z,35.09
2023-04-06T23:40:33.438Z,35.46
2023-04-06T23:43:00.218Z,35.18
2023-04-06T23:45:27.249Z,35.18
2023-04-06T23:47:54.364Z,34.99
2023-04-06T23:50:21.254Z,34.98
2023-04-06T23:52:48.203Z,34.98
2023-04-06T23:55:14.963Z,34.95
2023-04-06T23:57:41.804Z,34.75
